Holyoke, CO

5:10 AM MDT on August 28, 2014 (GMT -0600)
CODOT | Change Station
CLOSE
Current Station
Personal Weather Station
Location: Holyoke, CO
Elevation: 3746 ft
Nearby Weather Stations

Elev 3746 ft 40.47 °N, 102.30 °W | Updated 148 days ago

Clear
Clear
63 °F
Feels Like 63 °F
N
7
Wind Variable Wind from North
Gusts 7 mph

Today
High -- | Low -- °F
--% Chance of Precip.
Yesterday
High -- | Low -- °F
Precip. -- in
6:12 AM 7:27 PM
Waxing Crescent, 7% visible
Pressure 30.01 in
Visibility 10.0 miles
Clouds Scattered Clouds 4100 ft
Dew Point 61 °F
Humidity 96%
Rainfall -999.00 in
Snow Depth Not available.
UV 0 out of 12
Pollen 8.00 out of 12
Air Quality Not available.
Flu Activity Not available.
METAR KHEQ 281055Z AUTO 28007KT 10SM SCT041 15/14 A3001 RMK AO2

More Conditions Fewer Conditions

Pressure 30.01 in
Visibility 10.0 miles
Clouds Scattered Clouds 4100 ft
Dew Point 61 °F
Humidity 96%
Rainfall -999.00 in
Snow Depth Not available.
UV 0 out of 12
Pollen 8.00 out of 12
Air Quality Not available.
Flu Activity Not available.
METAR KHEQ 281055Z AUTO 28007KT 10SM SCT041 15/14 A3001 RMK AO2

More Conditions Fewer Conditions

10-Day Weather Forecast

Almanac

Astronomy

Aug. 28, 2014 Rise Set
Actual Time 6:12 AM MDT 7:27 PM MDT
Civil Twilight 5:44 AM MDT 7:55 PM MDT
Nautical Twilight 5:10 AM MDT 8:29 PM MDT
Astronomical Twilight 4:35 AM MDT 9:04 PM MDT
Moon 9:07 AM MDT 8:51 PM MDT
Length of Visible Light 14h 11m
Length of Day
13h 14m
Tomorrow will be 2m 32s shorter.
Waxing Crescent, 7% of the Moon is Illuminated
Today
Waxing Crescent
Sep 2
First Quarter
Sep 8
Full
Sep 15
Last Quarter
Sep 24
New

Today's Extremes

State Highs State Lows

Community

WunderPhotos

Upload Photos

1,747,923 photos uploaded!

Nearby

Snow Depth

Station Depth Elevation
Copeland Lake 0 in 8600 ft
Niwot 1 in 9910 ft
Wild Basin 0 in 9560 ft
University Camp 0 in 10300 ft
Willow Park 1 in 10700 ft

Earthquake Activity

City Distance Mag. Time & Date
No recent earthquake activity has been reported nearby.
Minimum magnitude displayed is 2.5.

Coastal Water Temperatures

Place Temperature
No Stations Reporting

Nearby Weather Stations